Time;durP1;ratioP1;P1;durP2;ratioP2;P2;SDS_P1;SDS_P2;PMS_P1;PMS_P2;Temp;Humidity;BMP_temperature;BMP_pressure;BME280_temperature;BME280_humidity;BME280_pressure;Samples;Min_cycle;Max_cycle;Signal;HPM_P1;HPM_P2
2024/01/27 00:00:09;;;;;;;;;0.00;0.00;;;;;5.91;100.00;103399.13;5083904;27;65678;-84
2024/01/27 00:02:34;;;;;;;;;0.00;0.00;;;;;5.89;100.00;103402.47;5091059;27;45384;-84
2024/01/27 00:05:00;;;;;;;;;0.00;0.00;;;;;5.87;100.00;103417.06;5095506;27;48048;-84
2024/01/27 00:07:27;;;;;;;;;0.00;0.00;;;;;5.87;100.00;103423.13;5094322;27;57893;-84
2024/01/27 00:09:52;;;;;;;;;0.00;0.00;;;;;5.82;100.00;103422.09;5096414;27;45512;-84
2024/01/27 00:12:18;;;;;;;;;0.00;0.00;;;;;5.79;100.00;103414.22;5096663;27;45404;-83
2024/01/27 00:14:44;;;;;;;;;0.00;0.00;;;;;5.76;100.00;103409.84;5093846;27;45388;-84
2024/01/27 00:17:09;;;;;;;;;0.00;0.00;;;;;5.73;100.00;103412.31;5077852;27;45428;-85
2024/01/27 00:19:35;;;;;;;;;0.00;0.00;;;;;5.74;100.00;103415.75;5095243;27;45367;-84
2024/01/27 00:22:00;;;;;;;;;0.00;0.00;;;;;5.73;100.00;103421.78;5094574;27;53558;-84
2024/01/27 00:24:25;;;;;;;;;0.00;0.00;;;;;5.71;100.00;103433.78;5094755;27;45681;-84
2024/01/27 00:26:51;;;;;;;;;0.00;0.00;;;;;5.70;100.00;103424.25;5076846;27;71919;-84
2024/01/27 00:29:16;;;;;;;;;0.00;0.00;;;;;5.68;100.00;103429.34;5095145;27;62654;-84
2024/01/27 00:31:41;;;;;;;;;0.00;0.00;;;;;5.66;100.00;103424.97;5093842;27;64605;-84
2024/01/27 00:34:07;;;;;;;;;0.00;0.00;;;;;5.61;100.00;103430.00;5095583;27;45341;-84
2024/01/27 00:36:32;;;;;;;;;0.00;0.00;;;;;5.59;100.00;103418.69;5094835;27;72181;-83
2024/01/27 00:38:57;;;;;;;;;0.00;0.00;;;;;5.57;100.00;103415.19;5098163;27;50808;-84
2024/01/27 00:41:23;;;;;;;;;0.00;0.00;;;;;5.54;100.00;103417.69;5098300;27;45539;-83
2024/01/27 00:43:48;;;;;;;;;0.00;0.00;;;;;5.54;100.00;103420.28;5098428;27;45353;-84
2024/01/27 00:46:13;;;;;;;;;0.00;0.00;;;;;5.52;100.00;103419.34;5098610;27;73095;-84
2024/01/27 00:48:39;;;;;;;;;0.00;0.00;;;;;5.49;100.00;103425.25;5079287;27;68879;-83
2024/01/27 00:51:04;;;;;;;;;4.00;4.00;;;;;5.46;100.00;103427.75;5080013;27;64262;-84
2024/01/27 00:53:29;;;;;;;;;0.00;0.00;;;;;5.45;100.00;103440.63;5097934;27;46105;-84
2024/01/27 00:55:55;;;;;;;;;0.00;0.00;;;;;5.39;100.00;103426.66;5098254;27;70428;-84
2024/01/27 00:58:20;;;;;;;;;0.00;0.00;;;;;5.40;100.00;103430.09;5098418;27;45525;-83
2024/01/27 01:00:45;;;;;;;;;0.00;0.00;;;;;5.39;100.00;103429.22;5098343;27;70351;-83
2024/01/27 01:03:11;;;;;;;;;0.00;0.00;;;;;5.37;100.00;103415.38;5097673;27;75432;-83
2024/01/27 01:05:36;;;;;;;;;0.25;0.25;;;;;5.35;100.00;103424.78;5099006;27;45362;-83
2024/01/27 01:08:01;;;;;;;;;0.00;0.00;;;;;5.34;100.00;103427.31;5096823;27;67677;-84
2024/01/27 01:10:27;;;;;;;;;0.00;0.00;;;;;5.30;100.00;103415.97;5098125;27;64725;-84
2024/01/27 01:12:52;;;;;;;;;0.00;0.00;;;;;5.30;100.00;103402.19;5097380;27;46510;-83
2024/01/27 01:15:18;;;;;;;;;0.00;0.00;;;;;5.30;100.00;103409.94;5097095;27;63056;-84
2024/01/27 01:17:43;;;;;;;;;0.00;0.00;;;;;5.28;100.00;103403.84;5097325;27;45313;-83
2024/01/27 01:20:09;;;;;;;;;0.00;0.00;;;;;5.25;100.00;103404.59;5098438;27;62462;-83
2024/01/27 01:22:34;;;;;;;;;0.00;0.00;;;;;5.23;100.00;103406.25;5098670;27;46953;-84
2024/01/27 01:24:59;;;;;;;;;0.00;0.00;;;;;5.21;100.00;103408.78;5096904;27;61316;-83
2024/01/27 01:27:25;;;;;;;;;0.00;0.00;;;;;5.21;100.00;103408.78;5097720;27;66969;-84
2024/01/27 01:29:50;;;;;;;;;0.00;0.00;;;;;5.20;100.00;103400.97;5097732;27;70730;-84
2024/01/27 01:32:15;;;;;;;;;0.00;0.00;;;;;5.15;100.00;103400.81;5100974;27;75333;-83
2024/01/27 01:34:41;;;;;;;;;0.00;0.00;;;;;5.11;100.00;103396.38;5096103;27;72016;-83
2024/01/27 01:37:06;;;;;;;;;0.00;0.00;;;;;5.10;100.00;103386.84;5097188;27;45881;-83
2024/01/27 01:39:31;;;;;;;;;0.00;0.00;;;;;5.08;100.00;103401.41;5097656;27;69385;-84
2024/01/27 01:41:57;;;;;;;;;0.00;0.00;;;;;5.33;100.00;103391.97;5097205;27;45417;-83
2024/01/27 01:44:22;;;;;;;;;0.00;0.00;;;;;5.36;100.00;103389.50;5096621;27;62776;-84
2024/01/27 01:46:47;;;;;;;;;0.00;0.00;;;;;5.36;100.00;103397.25;5096080;27;65058;-83
2024/01/27 01:49:13;;;;;;;;;0.00;0.00;;;;;5.35;100.00;103396.38;5095446;27;67185;-83
2024/01/27 01:51:38;;;;;;;;;0.00;0.00;;;;;5.31;100.00;103391.94;5096650;27;45487;-83
2024/01/27 01:54:04;;;;;;;;;0.00;0.00;;;;;5.34;100.00;103398.91;5096020;27;72413;-83
2024/01/27 01:56:29;;;;;;;;;0.00;0.00;;;;;5.33;100.00;103395.44;5097501;27;60231;-84
2024/01/27 01:58:55;;;;;;;;;0.00;0.00;;;;;5.31;100.00;103388.44;5096986;27;45319;-83
2024/01/27 02:01:23;;;;;;;;;0.00;0.00;;;;;5.27;100.00;103397.78;5097891;27;46524;-83
2024/01/27 02:03:55;;;;;;;;;0.00;0.00;;;;;5.26;100.00;103396.03;5094518;27;45530;-82
2024/01/27 02:06:20;;;;;;;;;0.00;0.00;;;;;5.23;100.00;103398.50;5095268;27;45651;-84
2024/01/27 02:08:46;;;;;;;;;0.00;0.00;;;;;5.22;100.00;103407.97;5078831;27;63342;-83
2024/01/27 02:11:11;;;;;;;;;0.00;0.00;;;;;5.18;100.00;103405.19;5097408;27;61547;-84
2024/01/27 02:13:36;;;;;;;;;0.00;0.00;;;;;5.17;100.00;103404.34;5095364;27;64955;-85
2024/01/27 02:16:02;;;;;;;;;0.00;0.00;;;;;5.14;100.00;103388.72;5096961;27;45641;-85
2024/01/27 02:18:27;;;;;;;;;0.00;0.00;;;;;4.87;100.00;103383.44;5098176;27;45440;-84
2024/01/27 02:20:52;;;;;;;;;0.00;0.00;;;;;4.80;100.00;103387.50;5096995;27;74546;-85
2024/01/27 02:23:18;;;;;;;;;0.00;0.00;;;;;4.78;100.00;103390.84;5093527;27;45456;-84
2024/01/27 02:25:43;;;;;;;;;0.00;0.00;;;;;4.76;100.00;103392.50;5097184;27;60134;-84
2024/01/27 02:28:08;;;;;;;;;0.00;0.00;;;;;4.74;100.00;103394.13;5097685;27;45565;-84
2024/01/27 02:30:34;;;;;;;;;0.00;0.00;;;;;4.72;100.00;103390.59;5112823;27;77623;-84
2024/01/27 02:32:59;;;;;;;;;0.00;0.00;;;;;4.70;100.00;103385.41;5095394;27;73500;-83
2024/01/27 02:35:24;;;;;;;;;0.00;0.00;;;;;4.69;100.00;103385.34;5096445;27;45431;-83
2024/01/27 02:37:50;;;;;;;;;0.00;0.00;;;;;4.67;100.00;103382.69;5095464;27;45350;-84
2024/01/27 02:40:15;;;;;;;;;3.00;3.00;;;;;4.64;100.00;103377.41;5096983;27;46139;-84
2024/01/27 02:42:43;;;;;;;;;0.00;0.00;;;;;4.62;100.00;103376.47;5096336;27;72081;-84
2024/01/27 02:45:10;;;;;;;;;0.00;0.00;;;;;4.61;100.00;103385.91;5113630;27;45400;-84
2024/01/27 02:47:35;;;;;;;;;0.00;0.00;;;;;4.60;100.00;103383.28;5096394;27;45330;-84
2024/01/27 02:50:00;;;;;;;;;0.00;0.00;;;;;4.60;100.00;103384.16;5094891;27;72569;-84
2024/01/27 02:52:27;;;;;;;;;0.00;0.00;;;;;4.60;100.00;103381.56;5094933;27;74555;-83
2024/01/27 02:54:53;;;;;;;;;0.00;0.00;;;;;4.59;100.00;103381.53;5096227;27;45564;-83
2024/01/27 02:57:19;;;;;;;;;0.00;0.00;;;;;4.56;100.00;103376.25;5095707;27;45394;-84
2024/01/27 02:59:48;;;;;;;;;0.00;0.00;;;;;4.55;100.00;103380.53;5094406;27;47126;-84
2024/01/27 03:02:13;;;;;;;;;0.00;0.00;;;;;4.53;100.00;103377.03;5095969;27;45647;-84
2024/01/27 03:04:38;;;;;;;;;1.00;1.00;;;;;4.52;100.00;103377.81;5096193;27;64758;-84
2024/01/27 03:07:04;;;;;;;;;0.00;0.00;;;;;4.54;100.00;103388.22;5094803;27;69254;-83
2024/01/27 03:09:30;;;;;;;;;0.00;0.00;;;;;4.52;100.00;103379.53;5095511;27;47025;-83
2024/01/27 03:11:56;;;;;;;;;1.00;1.00;;;;;4.50;100.00;103373.44;5095232;27;45483;-84
2024/01/27 03:14:21;;;;;;;;;0.00;0.00;;;;;4.47;100.00;103374.19;5096976;27;45360;-84
2024/01/27 03:16:46;;;;;;;;;0.00;0.00;;;;;4.46;100.00;103373.31;5096920;27;45446;-84
2024/01/27 03:19:12;;;;;;;;;0.00;0.00;;;;;4.40;100.00;103362.78;5095652;27;73707;-82
2024/01/27 03:21:37;;;;;;;;;2.50;2.50;;;;;4.39;100.00;103365.28;5096845;27;45370;-82
2024/01/27 03:24:03;;;;;;;;;0.00;0.00;;;;;4.40;100.00;103355.03;5095774;27;45396;-82
2024/01/27 03:26:28;;;;;;;;;0.00;0.00;;;;;4.37;100.00;103351.44;5095355;27;45437;-81
2024/01/27 03:28:54;;;;;;;;;0.00;0.00;;;;;4.35;100.00;103359.13;5095782;27;72967;-81
2024/01/27 03:31:19;;;;;;;;;0.25;0.25;;;;;4.34;100.00;103361.63;5095786;27;66718;-82
2024/01/27 03:33:44;;;;;;;;;0.00;0.00;;;;;4.33;100.00;103362.44;5095951;27;69130;-82
2024/01/27 03:36:11;;;;;;;;;0.00;0.00;;;;;4.32;100.00;103359.00;5095435;27;45450;-83
2024/01/27 03:38:37;;;;;;;;;0.00;0.00;;;;;4.31;100.00;103358.94;5095137;27;46452;-82
2024/01/27 03:41:02;;;;;;;;;0.00;0.00;;;;;4.30;100.00;103364.91;5096412;27;45400;-82
2024/01/27 03:43:28;;;;;;;;;0.00;0.00;;;;;4.26;100.00;103357.06;5111374;27;45269;-82
2024/01/27 03:45:53;;;;;;;;;0.00;0.00;;;;;4.23;100.00;103353.47;5096101;27;56365;-82
2024/01/27 03:48:18;;;;;;;;;0.00;0.00;;;;;4.19;100.00;103346.44;5094263;27;74372;-82
2024/01/27 03:50:44;;;;;;;;;0.00;0.00;;;;;4.18;100.00;103342.09;5076901;27;72754;-82
2024/01/27 03:53:09;;;;;;;;;0.00;0.00;;;;;4.17;100.00;103345.50;5112095;27;45360;-82
2024/01/27 03:55:35;;;;;;;;;0.00;0.00;;;;;4.14;100.00;103343.72;5094962;27;45355;-82
2024/01/27 03:58:00;;;;;;;;;0.00;0.00;;;;;4.13;100.00;103346.22;5093917;27;48119;-82
2024/01/27 04:00:27;;;;;;;;;0.00;0.00;;;;;4.10;100.00;103346.94;5096281;27;45540;-82
2024/01/27 04:02:52;;;;;;;;;0.00;0.00;;;;;4.10;100.00;103346.94;5096763;27;45464;-82
2024/01/27 04:05:17;;;;;;;;;7.00;7.00;;;;;4.07;100.00;103340.00;5096251;27;48963;-82
2024/01/27 04:07:43;;;;;;;;;0.00;0.00;;;;;4.05;100.00;103339.06;5095163;27;70861;-83
2024/01/27 04:10:08;;;;;;;;;0.67;0.67;;;;;4.05;100.00;103340.75;5111670;27;48971;-82
2024/01/27 04:12:34;;;;;;;;;0.00;0.00;;;;;4.02;100.00;103346.66;5098901;27;45315;-82
2024/01/27 04:14:59;;;;;;;;;0.00;0.00;;;;;4.01;100.00;103341.44;5087856;27;45457;-82
2024/01/27 04:17:25;;;;;;;;;0.00;0.00;;;;;4.00;100.00;103342.28;5078069;28;46291;-83
2024/01/27 04:19:50;;;;;;;;;0.00;0.00;;;;;3.96;100.00;103354.16;5060149;28;75339;-82
2024/01/27 04:22:15;;;;;;;;;0.00;0.00;;;;;3.96;100.00;103358.44;5077245;28;63784;-83
2024/01/27 04:24:41;;;;;;;;;0.00;0.00;;;;;3.93;100.00;103358.31;5093145;27;45357;-82
2024/01/27 04:27:06;;;;;;;;;0.00;0.00;;;;;3.91;100.00;103362.50;5097004;27;77126;-83
2024/01/27 04:29:31;;;;;;;;;0.00;0.00;;;;;3.91;100.00;103358.22;5115263;27;45374;-83
2024/01/27 04:31:57;;;;;;;;;0.00;0.00;;;;;3.93;100.00;103368.59;5098375;27;45586;-82
2024/01/27 04:34:22;;;;;;;;;0.00;0.00;;;;;3.91;100.00;103370.25;5097079;27;71627;-83
2024/01/27 04:36:47;;;;;;;;;0.00;0.00;;;;;3.89;100.00;103365.03;5098606;27;71025;-82
2024/01/27 04:39:13;;;;;;;;;0.00;0.00;;;;;3.87;100.00;103366.66;5097065;27;73057;-83
2024/01/27 04:41:43;;;;;;;;;9.00;9.00;;;;;3.88;100.00;103368.41;5098196;27;45403;-83
2024/01/27 04:44:08;;;;;;;;;0.00;0.00;;;;;3.85;100.00;103374.31;5099678;27;45484;-83
2024/01/27 04:46:34;;;;;;;;;0.00;0.00;;;;;3.85;100.00;103373.44;5110749;27;75089;-83
2024/01/27 04:48:59;;;;;;;;;0.00;0.00;;;;;3.84;100.00;103374.25;5082769;27;45406;-83
2024/01/27 04:51:24;;;;;;;;;0.00;0.00;;;;;3.81;100.00;103371.56;5097968;27;45476;-83
2024/01/27 04:53:50;;;;;;;;;0.00;0.00;;;;;3.81;100.00;103369.88;5096767;27;66965;-83
2024/01/27 04:56:15;;;;;;;;;0.00;0.00;;;;;3.79;100.00;103371.50;5098122;27;73294;-82
2024/01/27 04:58:41;;;;;;;;;0.00;0.00;;;;;3.77;100.00;103377.38;5098268;27;71885;-83
2024/01/27 05:01:06;;;;;;;;;6.67;6.67;;;;;3.75;100.00;103373.88;5099118;27;45335;-82
2024/01/27 05:03:32;;;;;;;;;0.00;0.00;;;;;3.73;100.00;103378.97;5099097;27;45507;-82
2024/01/27 05:05:57;;;;;;;;;0.00;0.00;;;;;3.73;100.00;103376.38;5096375;27;47916;-82
2024/01/27 05:08:22;;;;;;;;;0.00;0.00;;;;;3.72;100.00;103368.63;5079338;27;70954;-82
2024/01/27 05:10:48;;;;;;;;;0.00;0.00;;;;;3.71;100.00;103372.84;5098304;27;45333;-83
2024/01/27 05:13:13;;;;;;;;;0.00;0.00;;;;;3.69;100.00;103372.78;5097477;27;45463;-83
2024/01/27 05:15:38;;;;;;;;;13.00;13.00;;;;;3.67;100.00;103378.72;5098074;27;73841;-83
2024/01/27 05:18:04;;;;;;;;;0.00;0.00;;;;;3.67;100.00;103389.88;5098860;27;45361;-84
2024/01/27 05:20:29;;;;;;;;;0.00;0.00;;;;;3.67;100.00;103389.88;5099000;27;45374;-84
2024/01/27 05:22:55;;;;;;;;;0.00;0.00;;;;;3.65;100.00;103385.50;5096634;27;70377;-84
2024/01/27 05:25:20;;;;;;;;;0.00;0.00;;;;;3.65;100.00;103396.66;5096356;27;71299;-84
2024/01/27 05:27:45;;;;;;;;;0.00;0.00;;;;;3.63;100.00;103384.56;5098410;27;51482;-84
2024/01/27 05:30:11;;;;;;;;;0.00;0.00;;;;;3.51;100.00;103386.59;5076914;27;65973;-84
2024/01/27 05:32:36;;;;;;;;;0.00;0.00;;;;;3.47;100.00;103380.44;5091353;27;45543;-83
2024/01/27 05:35:03;;;;;;;;;9.00;9.00;;;;;3.45;100.00;103387.22;5097924;27;64017;-84
2024/01/27 05:37:28;;;;;;;;;0.00;0.00;;;;;3.41;100.00;103380.19;5096992;27;45381;-83
2024/01/27 05:39:54;;;;;;;;;15.00;15.00;;;;;3.41;100.00;103387.91;5097469;27;45367;-84
2024/01/27 05:42:19;;;;;;;;;6.75;6.75;;;;;3.39;100.00;103386.97;5097644;27;45397;-84
2024/01/27 05:44:45;;;;;;;;;0.00;0.00;;;;;3.37;100.00;103379.16;5095823;27;57382;-83
2024/01/27 05:47:10;;;;;;;;;0.00;0.00;;;;;3.35;100.00;103372.19;5080059;27;45401;-84
2024/01/27 05:49:36;;;;;;;;;0.00;0.00;;;;;3.34;100.00;103381.59;5093864;27;45376;-83
2024/01/27 05:52:02;;;;;;;;;18.00;18.00;;;;;3.34;100.00;103373.00;5077918;27;45457;-84
2024/01/27 05:54:27;;;;;;;;;0.00;0.00;;;;;3.32;100.00;103372.06;5076648;28;45648;-83
2024/01/27 05:56:52;;;;;;;;;0.00;0.00;;;;;3.32;100.00;103372.94;5077921;27;45257;-84
2024/01/27 05:59:18;;;;;;;;;0.00;0.00;;;;;3.28;100.00;103361.63;5076787;28;45363;-83
2024/01/27 06:01:44;;;;;;;;;0.00;0.00;;;;;3.26;100.00;103365.81;5088673;27;65925;-83
2024/01/27 06:04:12;;;;;;;;;0.00;0.00;;;;;3.23;100.00;103370.84;5077640;27;45470;-85
2024/01/27 06:06:40;;;;;;;;;51.00;30.50;;;;;3.22;100.00;103368.22;5092891;27;45419;-84
2024/01/27 06:09:10;;;;;;;;;2.00;2.00;;;;;3.20;100.00;103362.13;5078115;27;45443;-84
2024/01/27 06:11:36;;;;;;;;;0.00;0.00;;;;;3.18;100.00;103368.91;5081360;27;45243;-83
2024/01/27 06:14:02;;;;;;;;;0.00;0.00;;;;;3.15;100.00;103358.47;5096210;27;46283;-84
2024/01/27 06:16:27;;;;;;;;;0.00;0.00;;;;;3.14;100.00;103365.31;5097243;27;66775;-84
2024/01/27 06:18:54;;;;;;;;;0.00;0.00;;;;;3.16;100.00;103379.13;5097177;27;67415;-84
2024/01/27 06:21:19;;;;;;;;;0.00;0.00;;;;;3.14;100.00;103369.56;5096483;27;45409;-83
2024/01/27 06:23:45;;;;;;;;;0.00;0.00;;;;;3.14;100.00;103380.75;5097814;27;46206;-83
2024/01/27 06:26:12;;;;;;;;;0.00;0.00;;;;;3.14;100.00;103377.28;5093937;27;45781;-84
2024/01/27 06:28:38;;;;;;;;;0.00;0.00;;;;;3.11;100.00;103372.88;5096489;27;45430;-84
2024/01/27 06:31:04;;;;;;;;;0.00;0.00;;;;;3.12;100.00;103364.38;5095224;27;66463;-84
2024/01/27 06:33:29;;;;;;;;;16.00;16.00;;;;;3.12;100.00;103371.19;5097537;27;46494;-84
2024/01/27 06:35:55;;;;;;;;;0.00;0.00;;;;;3.10;100.00;103366.88;5096727;27;45404;-83
2024/01/27 06:38:20;;;;;;;;;0.00;0.00;;;;;3.05;100.00;103355.47;5097027;27;59996;-84
2024/01/27 06:40:45;;;;;;;;;0.00;0.00;;;;;3.07;100.00;103363.28;5112378;27;68409;-83
2024/01/27 06:43:13;;;;;;;;;0.00;0.00;;;;;3.08;100.00;103370.16;5096483;27;74088;-84
2024/01/27 06:45:38;;;;;;;;;0.00;0.00;;;;;3.05;100.00;103370.06;5096136;27;45301;-84
2024/01/27 06:48:05;;;;;;;;;0.00;0.00;;;;;3.02;100.00;103363.06;5094876;27;45631;-84
2024/01/27 06:50:30;;;;;;;;;0.00;0.00;;;;;3.02;100.00;103363.06;5095789;27;45493;-84
2024/01/27 06:52:55;;;;;;;;;0.00;0.00;;;;;3.01;100.00;103363.88;5096041;27;75855;-84
2024/01/27 06:55:20;;;;;;;;;0.00;0.00;;;;;3.00;100.00;103367.25;5096666;27;59807;-84
2024/01/27 06:57:46;;;;;;;;;0.00;0.00;;;;;2.99;100.00;103368.09;5096279;27;69192;-84
2024/01/27 07:00:14;;;;;;;;;0.00;0.00;;;;;2.98;100.00;103371.44;5094630;27;45480;-84
2024/01/27 07:02:41;;;;;;;;;0.00;0.00;;;;;3.01;100.00;103365.56;5096970;27;45643;-84
2024/01/27 07:05:07;;;;;;;;;0.00;0.00;;;;;3.01;100.00;103360.41;5095358;27;45545;-84
2024/01/27 07:07:33;;;;;;;;;0.00;0.00;;;;;3.00;100.00;103356.97;5097534;27;45321;-84
2024/01/27 07:09:58;;;;;;;;;0.00;0.00;;;;;3.01;100.00;103363.88;5095574;27;56706;-84
2024/01/27 07:12:24;;;;;;;;;0.00;0.00;;;;;3.00;100.00;103364.69;5094730;27;66620;-83
2024/01/27 07:14:49;;;;;;;;;0.00;0.00;;;;;3.03;100.00;103364.81;5095129;27;45413;-83
2024/01/27 07:17:14;;;;;;;;;0.00;0.00;;;;;3.03;100.00;103362.25;5096975;27;45359;-84
2024/01/27 07:19:40;;;;;;;;;0.00;0.00;;;;;3.05;100.00;103365.78;5089389;27;57787;-83
2024/01/27 07:22:05;;;;;;;;;0.00;0.00;;;;;3.07;100.00;103373.56;5063914;27;77523;-83
2024/01/27 07:24:30;;;;;;;;;0.00;0.00;;;;;3.09;100.00;103366.78;5088848;27;47612;-84
2024/01/27 07:26:59;;;;;;;;;0.00;0.00;;;;;3.09;100.00;103365.09;5087962;27;45798;-88
2024/01/27 07:29:24;;;;;;;;;0.00;0.00;;;;;3.12;100.00;103373.75;5085822;27;45614;-85
2024/01/27 07:31:50;;;;;;;;;0.00;0.00;;;;;3.16;100.00;103383.38;5086586;27;71824;-89
2024/01/27 07:34:15;;;;;;;;;0.00;0.00;;;;;3.15;100.00;103377.34;5099852;27;57987;-82
2024/01/27 07:36:40;;;;;;;;;0.00;0.00;;;;;3.17;100.00;103375.72;5085839;27;66508;-85
2024/01/27 07:39:06;;;;;;;;;0.00;0.00;;;;;3.20;100.00;103378.44;5088869;27;69281;-81
2024/01/27 07:41:31;;;;;;;;;0.00;0.00;;;;;3.23;100.00;103377.69;5087050;27;69709;-83
2024/01/27 07:43:57;;;;;;;;;0.00;0.00;;;;;3.24;100.00;103372.59;5084427;27;70938;-83
2024/01/27 07:46:22;;;;;;;;;21.00;21.00;;;;;3.26;100.00;103380.41;5086447;27;71292;-84
2024/01/27 07:48:51;;;;;;;;;0.00;0.00;;;;;3.30;100.00;103387.44;5090653;27;45783;-83
2024/01/27 07:51:16;;;;;;;;;0.00;0.00;;;;;3.32;100.00;103387.50;5091015;27;45439;-83
2024/01/27 07:53:41;;;;;;;;;7.33;7.33;;;;;3.31;100.00;103378.91;5073650;28;72177;-83
2024/01/27 07:56:07;;;;;;;;;0.00;0.00;;;;;3.37;100.00;103378.28;5074367;28;59736;-82
2024/01/27 07:58:33;;;;;;;;;0.00;0.00;;;;;3.37;100.00;103373.16;5075954;27;45223;-84
2024/01/27 08:00:58;;;;;;;;;0.00;0.00;;;;;3.40;100.00;103381.88;5093464;27;46246;-83
2024/01/27 08:03:23;;;;;;;;;0.00;0.00;;;;;3.41;100.00;103381.06;5088077;27;45582;-82
2024/01/27 08:05:49;;;;;;;;;0.00;0.00;;;;;3.43;100.00;103378.56;5089463;27;45418;-84
2024/01/27 08:08:14;;;;;;;;;0.00;0.00;;;;;3.44;100.00;103386.34;5093667;27;70264;-84
2024/01/27 08:10:40;;;;;;;;;0.00;0.00;;;;;3.45;100.00;103387.22;5095193;27;72555;-84
2024/01/27 08:13:05;;;;;;;;;0.00;0.00;;;;;3.55;100.00;103381.66;5095238;27;45304;-83
2024/01/27 08:15:30;;;;;;;;;0.00;0.00;;;;;3.63;100.00;103385.44;5077210;27;49237;-85
2024/01/27 08:17:56;;;;;;;;;0.00;0.00;;;;;3.73;100.00;103390.97;5075675;27;71322;-82
2024/01/27 08:20:21;;;;;;;;;3.00;3.00;;;;;3.74;100.00;103397.88;5086533;27;45456;-84
2024/01/27 08:22:50;;;;;;;;;0.00;0.00;;;;;3.77;100.00;103398.00;5087316;27;66381;-84
2024/01/27 08:25:16;;;;;;;;;0.00;0.00;;;;;3.80;100.00;103390.41;5086593;27;45425;-85
2024/01/27 08:27:41;;;;;;;;;0.00;0.00;;;;;3.82;100.00;103386.19;5093854;27;45471;-86
2024/01/27 08:30:07;;;;;;;;;0.00;0.00;;;;;3.87;100.00;103384.69;5090812;27;45467;-82
2024/01/27 08:32:33;;;;;;;;;0.00;0.00;;;;;3.92;100.00;103378.03;5092380;27;45530;-87
2024/01/27 08:34:58;;;;;;;;;0.00;0.00;;;;;3.97;100.00;103386.81;5077328;27;45400;-86
2024/01/27 08:37:23;;;;;;;;;0.00;0.00;;;;;4.01;100.00;103382.66;5078135;27;55172;-87
2024/01/27 08:39:51;;;;;;;;;0.00;0.00;;;;;4.06;100.00;103384.63;5087184;27;46925;-80
2024/01/27 08:42:16;;;;;;;;;0.00;0.00;;;;;4.10;100.00;103388.19;5085613;27;45417;-89
2024/01/27 08:44:41;;;;;;;;;0.67;0.67;;;;;4.18;100.00;103385.91;5064452;28;56031;-89
2024/01/27 08:47:06;;;;;;;;;0.00;0.00;;;;;4.20;100.00;103392.06;5073810;28;63335;-88
2024/01/27 08:49:32;;;;;;;;;0.00;0.00;;;;;4.25;100.00;103378.53;5085727;27;46363;-88
2024/01/27 08:51:57;;;;;;;;;0.00;0.00;;;;;4.32;100.00;103374.47;5075755;27;66976;-88
2024/01/27 08:54:23;;;;;;;;;0.00;0.00;;;;;4.39;100.00;103373.03;5112753;27;45342;-88
2024/01/27 08:56:48;;;;;;;;;0.00;0.00;;;;;4.42;100.00;103381.75;5095757;27;64723;-89
2024/01/27 08:59:13;;;;;;;;;0.00;0.00;;;;;4.49;100.00;103381.97;5098796;27;56523;-89
2024/01/27 09:01:39;;;;;;;;;0.00;0.00;;;;;4.51;100.00;103373.47;5098699;27;47319;-89
2024/01/27 09:04:04;;;;;;;;;0.00;0.00;;;;;4.57;100.00;103373.72;5082199;27;45356;-89
2024/01/27 09:06:29;;;;;;;;;0.00;0.00;;;;;4.60;100.00;103372.94;5098141;27;69228;-89
2024/01/27 09:08:55;;;;;;;;;0.00;0.00;;;;;4.65;100.00;103367.16;5081303;27;57294;-88
2024/01/27 09:11:22;;;;;;;;;0.00;0.00;;;;;4.71;100.00;103365.63;5084463;27;45432;-89
2024/01/27 09:13:48;;;;;;;;;0.00;0.00;;;;;4.72;100.00;103357.94;5078047;28;45528;-89
2024/01/27 09:16:14;;;;;;;;;0.00;0.00;;;;;4.76;100.00;103348.63;5078106;27;45384;-89
2024/01/27 09:18:40;;;;;;;;;0.00;0.00;;;;;4.81;100.00;103354.81;5098407;27;48717;-88
2024/01/27 09:21:06;;;;;;;;;0.00;0.00;;;;;4.87;100.00;103352.47;5080806;27;69996;-89
2024/01/27 09:23:31;;;;;;;;;0.00;0.00;;;;;4.93;100.00;103357.84;5098574;27;45404;-88
2024/01/27 09:25:57;;;;;;;;;0.00;0.00;;;;;4.99;100.00;103360.63;5097758;27;69335;-88
2024/01/27 09:28:23;;;;;;;;;0.00;0.00;;;;;5.04;100.00;103350.50;5098831;27;46077;-88
2024/01/27 09:30:49;;;;;;;;;0.00;0.00;;;;;5.11;100.00;103356.75;5098331;27;45353;-88
2024/01/27 09:33:14;;;;;;;;;0.00;0.00;;;;;5.17;100.00;103350.09;5075738;28;68019;-88
2024/01/27 09:35:39;;;;;;;;;0.00;0.00;;;;;5.24;100.00;103349.50;5094781;27;45538;-88
2024/01/27 09:38:09;;;;;;;;;0.00;0.00;;;;;5.28;100.00;103349.63;5095171;27;45430;-88
2024/01/27 09:40:34;;;;;;;;;3.00;3.00;;;;;5.34;100.00;103347.25;5090876;27;45429;-88
2024/01/27 09:43:00;;;;;;;;;0.00;0.00;;;;;5.42;100.00;103353.53;5098072;27;45443;-88
2024/01/27 09:45:26;;;;;;;;;0.00;0.00;;;;;5.50;100.00;103346.94;5099551;27;45377;-88
2024/01/27 09:47:52;;;;;;;;;9.00;9.00;;;;;5.60;100.00;103356.75;5097166;27;47026;-88
2024/01/27 09:50:18;;;;;;;;;0.00;0.00;;;;;5.72;100.00;103368.31;5080873;27;45236;-88
2024/01/27 09:52:43;;;;;;;;;0.00;0.00;;;;;5.82;100.00;103358.34;5081177;27;45342;-88
2024/01/27 09:55:09;;;;;;;;;0.00;0.00;;;;;5.95;100.00;103354.47;5097916;27;45322;-88
2024/01/27 09:57:38;;;;;;;;;0.00;0.00;;;;;6.08;100.00;103352.28;5115003;27;48343;-89
2024/01/27 10:00:05;;;;;;;;;0.00;0.00;;;;;6.19;100.00;103353.50;5095894;27;45374;-88
2024/01/27 10:02:31;;;;;;;;;0.00;0.00;;;;;6.32;100.00;103365.13;5097991;27;45310;-88
2024/01/27 10:04:57;;;;;;;;;0.00;0.00;;;;;6.44;100.00;103378.41;5075610;28;58392;-88
2024/01/27 10:07:23;;;;;;;;;0.00;0.00;;;;;6.58;100.00;103376.25;5076785;28;48032;-88
2024/01/27 10:09:51;;;;;;;;;0.25;0.25;;;;;6.67;100.00;103373.94;5093596;27;45387;-88
2024/01/27 10:12:18;;;;;;;;;0.00;0.00;;;;;6.75;100.00;103379.34;5077157;27;45429;-89
2024/01/27 10:14:48;;;;;;;;;0.00;0.00;;;;;6.79;100.00;103378.59;5076323;28;72147;-89
2024/01/27 10:17:21;;;;;;;;;0.00;0.00;;;;;6.87;100.00;103369.34;5062501;28;47353;-89
2024/01/27 10:19:47;;;;;;;;;0.50;0.50;;;;;6.94;100.00;103358.31;5078460;28;45310;-89
2024/01/27 10:22:12;;;;;;;;;4.00;4.00;;;;;7.06;100.00;103367.28;5059597;28;65298;-89
2024/01/27 10:24:37;;;;;;;;;0.00;0.00;;;;;7.19;100.00;103371.94;5060324;28;45391;-88
2024/01/27 10:27:03;;;;;;;;;0.00;0.00;;;;;7.30;100.00;103369.63;5058790;28;77578;-89
2024/01/27 10:29:29;;;;;;;;;0.00;0.00;;;;;7.39;100.00;103369.00;5060368;28;45422;-88
2024/01/27 10:31:55;;;;;;;;;0.00;0.00;;;;;7.49;100.00;103369.28;5068848;27;45361;-88
2024/01/27 10:34:20;;;;;;;;;0.00;0.00;;;;;7.60;100.00;103366.97;5086095;27;45594;-89
2024/01/27 10:36:46;;;;;;;;;7.00;5.25;;;;;7.71;100.00;103365.53;5076342;28;46174;-88
2024/01/27 10:39:20;;;;;;;;;0.33;0.33;;;;;7.86;100.00;103362.44;5075712;28;71980;-89
2024/01/27 10:41:47;;;;;;;;;1.00;1.00;;;;;8.02;100.00;103357.63;5078044;28;45424;-89
2024/01/27 10:44:15;;;;;;;;;3.25;3.25;;;;;8.19;100.00;103355.41;5077269;28;45423;-89
2024/01/27 10:46:43;;;;;;;;;0.00;0.00;;;;;8.34;100.00;103356.66;5060102;28;46531;-88
2024/01/27 10:49:15;;;;;;;;;0.50;0.50;;;;;8.57;100.00;103347.66;5084246;27;45336;-88
2024/01/27 10:51:48;;;;;;;;;0.00;0.00;;;;;8.75;100.00;103348.03;5078827;27;45416;-89
2024/01/27 10:54:15;;;;;;;;;1.00;1.00;;;;;8.96;100.00;103352.75;5079654;27;45378;-88
2024/01/27 10:56:42;;;;;;;;;0.00;0.00;;;;;9.15;100.00;103347.91;5096916;27;47390;-88
2024/01/27 10:59:09;;;;;;;;;0.00;0.00;;;;;9.33;100.00;103337.00;5097165;27;45420;-88
2024/01/27 11:01:36;;;;;;;;;0.00;0.00;;;;;9.50;100.00;103339.03;5079708;27;45360;-88
2024/01/27 11:04:03;;;;;;;;;0.00;0.00;;;;;9.72;100.00;103339.41;5097054;27;45313;-89
2024/01/27 11:06:29;;;;;;;;;0.00;0.00;;;;;9.94;100.00;103331.94;5079735;27;46326;-89
2024/01/27 11:08:56;;;;;;;;;0.00;0.00;;;;;10.15;100.00;103328.78;5078893;27;46038;-88
2024/01/27 11:11:21;;;;;;;;;0.00;0.00;;;;;10.34;100.00;103322.97;5095442;27;64927;-88
2024/01/27 11:13:48;;;;;;;;;0.00;0.00;;;;;10.55;100.00;103324.09;5092416;27;45318;-89
2024/01/27 11:16:18;;;;;;;;;12.00;12.00;;;;;10.70;100.00;103321.72;5111911;27;47368;-89